Time;durP1;ratioP1;P1;durP2;ratioP2;P2;SDS_P1;SDS_P2;PMS_P1;PMS_P2;Temp;Humidity;BMP_temperature;BMP_pressure;BME280_temperature;BME280_humidity;BME280_pressure;Samples;Min_cycle;Max_cycle;Signal;HPM_P1;HPM_P2
2023/06/14 00:00:34;;;;;;;4.30;2.80;;;;;;;-145.69;nan;51854.28;5074777;28;20412;-84
2023/06/14 00:03:00;;;;;;;6.47;3.10;;;;;;;-145.69;nan;51862.19;5074829;28;20886;-83
2023/06/14 00:05:29;;;;;;;5.35;3.08;;;;;;;-145.69;nan;51883.97;5074756;28;20416;-83
2023/06/14 00:07:56;;;;;;;4.90;2.97;;;;;;;-145.69;nan;51878.03;5074631;28;20794;-82
2023/06/14 00:10:22;;;;;;;5.57;3.00;;;;;;;-145.69;nan;51868.13;5074849;28;20416;-83
2023/06/14 00:12:50;;;;;;;4.80;2.80;;;;;;;-145.69;nan;51842.38;5074448;28;20913;-82
2023/06/14 00:15:16;;;;;;;6.75;3.03;;;;;;;-145.69;nan;51870.13;5074622;28;20967;-84
2023/06/14 00:17:47;;;;;;;6.65;3.03;;;;;;;-145.69;nan;51878.03;5074795;28;20420;-84
2023/06/14 00:20:14;;;;;;;8.55;3.00;;;;;;;-145.69;nan;51868.13;5074823;28;20961;-83
2023/06/14 00:22:40;;;;;;;9.63;2.88;;;;;;;-145.69;nan;51868.13;5074527;28;20419;-83
2023/06/14 00:25:07;;;;;;;5.95;3.05;;;;;;;-145.69;nan;51876.06;5074614;28;20426;-84
2023/06/14 00:27:34;;;;;;;7.07;3.10;;;;;;;-145.69;nan;51878.03;5074467;28;20430;-82
2023/06/14 00:30:02;;;;;;;6.75;3.10;;;;;;;-145.69;nan;51862.19;5074835;28;20421;-83
2023/06/14 00:32:28;;;;;;;6.57;2.90;;;;;;;-145.69;nan;51842.38;5074674;28;20426;-83
2023/06/14 00:34:55;;;;;;;6.72;3.20;;;;;;;-145.69;nan;51826.56;5074516;28;20874;-83
2023/06/14 00:37:21;;;;;;;6.78;3.05;;;;;;;-145.69;nan;51885.94;5074409;28;20431;-83
2023/06/14 00:39:47;;;;;;;7.50;3.30;;;;;;;-145.69;nan;51866.16;5074491;28;20812;-83
2023/06/14 00:42:24;;;;;;;7.43;3.10;;;;;;;-145.69;nan;51878.03;5073879;28;20894;-82
2023/06/14 00:44:50;;;;;;;5.80;3.30;;;;;;;-145.69;nan;51862.19;5074133;28;20408;-83
2023/06/14 00:47:18;;;;;;;5.72;3.10;;;;;;;-145.69;nan;51878.03;5074258;28;20436;-83
2023/06/14 00:49:46;;;;;;;4.60;2.90;;;;;;;-145.69;nan;51846.34;5074306;28;20404;-83
2023/06/14 00:52:14;;;;;;;9.88;3.72;;;;;;;-145.69;nan;51897.84;5074591;28;20411;-83
2023/06/14 00:54:40;;;;;;;5.33;3.00;;;;;;;-145.69;nan;51862.19;5074023;28;20435;-83
2023/06/14 00:57:08;;;;;;;5.07;2.95;;;;;;;-145.69;nan;51895.84;5074331;28;20404;-82
2023/06/14 00:59:34;;;;;;;5.70;2.80;;;;;;;-145.69;nan;51889.91;5074035;28;20495;-83
2023/06/14 01:02:03;;;;;;;5.10;2.97;;;;;;;-145.69;nan;51874.06;5074246;28;20407;-83
2023/06/14 01:04:31;;;;;;;6.97;3.17;;;;;;;-145.69;nan;51862.19;5073706;28;20473;-83
2023/06/14 01:07:09;;;;;;;8.23;3.30;;;;;;;-145.69;nan;51856.25;5074466;28;20415;-83
2023/06/14 01:09:46;;;;;;;4.88;2.95;;;;;;;-145.69;nan;51889.91;5073483;28;20493;-83
2023/06/14 01:12:18;;;;;;;7.18;2.92;;;;;;;-145.69;nan;51852.28;5073832;28;20415;-82
2023/06/14 01:14:45;;;;;;;6.47;2.95;;;;;;;-145.69;nan;51883.97;5073233;28;20421;-84
2023/06/14 01:17:16;;;;;;;5.28;2.90;;;;;;;-145.69;nan;51882.00;5072944;28;20790;-82
2023/06/14 01:19:45;;;;;;;7.55;3.00;;;;;;;-145.69;nan;51870.13;5073551;28;20455;-83
2023/06/14 01:22:12;;;;;;;6.15;3.20;;;;;;;-145.69;nan;51883.97;5073335;28;20431;-82
2023/06/14 01:24:44;;;;;;;4.45;2.70;;;;;;;-145.69;nan;51872.09;5073251;28;20813;-83
2023/06/14 01:27:12;;;;;;;6.28;3.03;;;;;;;-145.69;nan;51862.19;5073459;28;20505;-82
2023/06/14 01:29:39;;;;;;;5.55;2.83;;;;;;;-145.69;nan;51870.13;5073480;28;20438;-82
2023/06/14 01:32:07;;;;;;;5.50;2.90;;;;;;;-145.69;nan;51872.09;5073741;28;20416;-83
2023/06/14 01:34:34;;;;;;;9.45;3.40;;;;;;;-145.69;nan;51860.22;5073385;28;20412;-83
2023/06/14 01:37:02;;;;;;;4.90;2.93;;;;;;;-145.69;nan;51874.06;5059659;28;20421;-82
2023/06/14 01:39:29;;;;;;;6.22;3.00;;;;;;;-145.69;nan;51897.84;5072770;28;20424;-83
2023/06/14 01:41:58;;;;;;;6.13;2.88;;;;;;;-145.69;nan;51883.97;5073025;28;20877;-83
2023/06/14 01:44:25;;;;;;;6.72;3.00;;;;;;;-145.69;nan;51883.97;5073131;28;20412;-82
2023/06/14 01:46:52;;;;;;;7.68;3.30;;;;;;;-145.69;nan;51880.00;5074138;28;20414;-83
2023/06/14 01:49:19;;;;;;;8.15;3.20;;;;;;;-145.69;nan;51866.16;5071867;28;20442;-82
2023/06/14 01:51:45;;;;;;;6.57;2.90;;;;;;;-145.69;nan;51868.13;5072542;28;20418;-82
2023/06/14 01:54:12;;;;;;;8.65;3.17;;;;;;;-145.69;nan;51883.97;5072458;28;20412;-82
2023/06/14 01:56:38;;;;;;;5.65;3.13;;;;;;;-145.69;nan;51882.00;5072607;28;20441;-83
2023/06/14 01:59:06;;;;;;;4.23;2.80;;;;;;;-145.69;nan;51848.34;5073534;28;20657;-81
2023/06/14 02:01:34;;;;;;;6.03;2.90;;;;;;;-145.69;nan;51832.50;5073335;28;20205;-81
2023/06/14 02:04:00;;;;;;;12.63;2.73;;;;;;;-145.69;nan;51862.19;5067490;28;20660;-82
2023/06/14 02:06:27;;;;;;;4.83;2.40;;;;;;;-145.69;nan;51880.00;5073378;28;20195;-82
2023/06/14 02:08:54;;;;;;;8.73;2.70;;;;;;;-145.69;nan;51889.91;5073740;28;20230;-82
2023/06/14 02:11:20;;;;;;;5.47;2.80;;;;;;;-145.69;nan;51870.13;5073714;28;20210;-81
2023/06/14 02:13:47;;;;;;;4.30;2.80;;;;;;;-145.69;nan;51905.75;5072897;28;20500;-82
2023/06/14 02:16:17;;;;;;;4.40;2.70;;;;;;;-145.69;nan;51878.03;5073317;28;20302;-81
2023/06/14 02:18:43;;;;;;;7.77;2.97;;;;;;;-145.69;nan;51893.88;5073562;28;20199;-82
2023/06/14 02:21:10;;;;;;;6.30;3.10;;;;;;;-145.69;nan;51887.94;5073479;28;20210;-82
2023/06/14 02:23:36;;;;;;;5.00;2.97;;;;;;;-145.69;nan;51927.53;5072744;28;20202;-82
2023/06/14 02:26:03;;;;;;;3.83;2.67;;;;;;;-145.69;nan;51917.63;5073269;28;20203;-82
2023/06/14 02:28:30;;;;;;;4.03;2.70;;;;;;;-145.69;nan;51864.16;5073602;28;20226;-82
2023/06/14 02:30:56;;;;;;;6.57;2.60;;;;;;;-145.69;nan;51901.78;5073693;28;20202;-82
2023/06/14 02:33:25;;;;;;;6.23;2.77;;;;;;;-145.69;nan;51887.94;5072753;28;20228;-82
2023/06/14 02:35:52;;;;;;;3.77;2.63;;;;;;;-145.69;nan;51889.91;5073524;28;20205;-82
2023/06/14 02:38:19;;;;;;;8.33;2.80;;;;;;;-145.69;nan;51883.97;5073313;28;20230;-82
2023/06/14 02:40:45;;;;;;;4.77;2.80;;;;;;;-145.69;nan;51885.94;5073371;28;20293;-81
2023/06/14 02:43:13;;;;;;;5.40;3.03;;;;;;;-145.69;nan;51882.00;5073175;28;20194;-82
2023/06/14 02:45:40;;;;;;;5.77;2.50;;;;;;;-145.69;nan;51862.19;5073266;28;20233;-82
2023/06/14 02:48:06;;;;;;;7.80;3.40;;;;;;;-145.69;nan;51870.13;5072976;28;20324;-82
2023/06/14 02:50:34;;;;;;;9.20;2.53;;;;;;;-145.69;nan;51887.94;5073113;28;20203;-81
2023/06/14 02:53:02;;;;;;;4.30;2.67;;;;;;;-145.69;nan;51882.00;5072655;28;20248;-82
2023/06/14 02:55:29;;;;;;;4.90;2.80;;;;;;;-145.69;nan;51858.22;5074844;28;20203;-81
2023/06/14 02:57:55;;;;;;;6.23;2.80;;;;;;;-145.69;nan;51880.00;5077139;28;20213;-82
2023/06/14 03:00:23;;;;;;;7.07;3.13;;;;;;;-145.69;nan;51903.78;5077128;28;20229;-80
2023/06/14 03:02:51;;;;;;;7.70;2.90;;;;;;;-145.69;nan;51883.97;5076359;28;20652;-81
2023/06/14 03:05:21;;;;;;;4.73;2.73;;;;;;;-145.69;nan;51866.16;5076962;28;20198;-81
2023/06/14 03:07:50;;;;;;;6.03;3.00;;;;;;;-145.69;nan;51931.50;5076741;28;20298;-81
2023/06/14 03:10:16;;;;;;;10.33;2.87;;;;;;;-145.69;nan;51878.03;5076610;28;20199;-82
2023/06/14 03:12:43;;;;;;;6.07;2.67;;;;;;;-145.69;nan;51872.09;5076712;28;20210;-81
2023/06/14 03:15:12;;;;;;;6.70;3.40;;;;;;;-145.69;nan;51885.94;5076687;28;20558;-82
2023/06/14 03:17:39;;;;;;;5.40;2.97;;;;;;;-145.69;nan;51895.84;5076486;28;20271;-81
2023/06/14 03:20:08;;;;;;;6.63;3.00;;;;;;;-145.69;nan;51887.94;5076210;28;20199;-82
2023/06/14 03:22:37;;;;;;;4.30;2.77;;;;;;;-145.69;nan;51893.88;5076447;28;20630;-82
2023/06/14 03:25:06;;;;;;;6.77;3.20;;;;;;;-145.69;nan;51885.94;5076475;28;20195;-81
2023/06/14 03:27:32;;;;;;;4.50;2.90;;;;;;;-145.69;nan;51854.28;5076444;28;20195;-82
2023/06/14 03:29:59;;;;;;;5.47;3.23;;;;;;;-145.69;nan;51883.97;5076325;28;20288;-82
2023/06/14 03:32:26;;;;;;;10.23;3.53;;;;;;;-145.69;nan;51893.88;5076624;28;20214;-82
2023/06/14 03:34:53;;;;;;;5.37;2.83;;;;;;;-145.69;nan;51893.88;5076805;28;20276;-82
2023/06/14 03:37:20;;;;;;;5.37;2.87;;;;;;;-145.69;nan;51903.78;5076807;28;20280;-82
2023/06/14 03:39:47;;;;;;;4.93;2.53;;;;;;;-145.69;nan;51885.94;5073742;28;20256;-83
2023/06/14 03:42:15;;;;;;;6.40;2.57;;;;;;;-145.69;nan;51887.94;5076798;28;20213;-83
2023/06/14 03:44:41;;;;;;;7.50;2.53;;;;;;;-145.69;nan;51915.66;5076788;28;20661;-83
2023/06/14 03:47:08;;;;;;;3.10;2.23;;;;;;;-145.69;nan;51897.84;5076100;28;20225;-82
2023/06/14 03:49:36;;;;;;;5.97;2.70;;;;;;;-145.69;nan;51885.94;5075175;28;20265;-82
2023/06/14 03:52:03;;;;;;;3.37;2.27;;;;;;;-145.69;nan;51856.25;5075479;28;20241;-81
2023/06/14 03:54:32;;;;;;;11.33;2.90;;;;;;;-145.69;nan;51876.06;5075351;28;20649;-83
2023/06/14 03:56:58;;;;;;;4.53;3.13;;;;;;;-145.69;nan;51874.06;5075920;28;20658;-84
2023/06/14 03:59:26;;;;;;;6.80;3.10;;;;;;;-145.69;nan;51864.16;5075406;28;20207;-82
2023/06/14 04:01:54;;;;;;;7.53;3.10;;;;;;;-145.69;nan;51862.19;5075569;28;20700;-82
2023/06/14 04:04:21;;;;;;;4.30;2.73;;;;;;;-145.69;nan;51885.94;5075247;28;20207;-82
2023/06/14 04:06:48;;;;;;;7.27;3.13;;;;;;;-145.69;nan;51838.44;5074623;28;20198;-82
2023/06/14 04:09:14;;;;;;;9.70;3.07;;;;;;;-145.69;nan;51868.13;5074515;28;20254;-83
2023/06/14 04:11:40;;;;;;;4.87;2.80;;;;;;;-145.69;nan;51870.13;5074998;28;20195;-83
2023/06/14 04:14:07;;;;;;;7.27;3.10;;;;;;;-145.69;nan;51905.75;5074578;28;20601;-82
2023/06/14 04:16:35;;;;;;;5.83;3.17;;;;;;;-145.69;nan;51866.16;5074408;28;20290;-82
2023/06/14 04:19:01;;;;;;;4.63;2.80;;;;;;;-145.69;nan;51891.88;5074584;28;20202;-82
2023/06/14 04:21:28;;;;;;;5.77;3.10;;;;;;;-145.69;nan;51919.63;5075129;28;20205;-81
2023/06/14 04:23:55;;;;;;;5.67;2.60;;;;;;;-145.69;nan;51893.88;5074283;28;20209;-83
2023/06/14 04:26:23;;;;;;;9.43;3.40;;;;;;;-145.69;nan;51889.91;5074606;28;20624;-83
2023/06/14 04:28:50;;;;;;;6.63;3.57;;;;;;;-145.69;nan;51887.94;5074081;28;20223;-83
2023/06/14 04:31:16;;;;;;;4.47;2.90;;;;;;;-145.69;nan;51882.00;5074524;28;20203;-83
2023/06/14 04:33:46;;;;;;;6.43;2.83;;;;;;;-145.69;nan;51893.88;5073927;28;20285;-83
2023/06/14 04:36:13;;;;;;;4.77;2.53;;;;;;;-145.69;nan;51880.00;5074325;28;20195;-83
2023/06/14 04:38:39;;;;;;;5.27;3.00;;;;;;;-145.69;nan;51854.28;5074381;28;20202;-83
2023/06/14 04:41:06;;;;;;;4.80;3.37;;;;;;;-145.69;nan;51913.69;5074339;28;20253;-82
2023/06/14 04:43:37;;;;;;;5.17;3.07;;;;;;;-145.69;nan;51909.72;5073719;28;20653;-81
2023/06/14 04:46:05;;;;;;;7.47;3.10;;;;;;;-145.69;nan;51868.13;5074092;28;20191;-83
2023/06/14 04:48:32;;;;;;;8.93;2.80;;;;;;;-145.69;nan;51895.84;5038316;28;1036159;-83
2023/06/14 04:51:00;;;;;;;4.07;2.50;;;;;;;-145.69;nan;51911.69;5075570;28;20203;-82
2023/06/14 04:53:28;;;;;;;5.57;2.90;;;;;;;-145.69;nan;51901.78;5075010;28;20256;-82
2023/06/14 04:55:55;;;;;;;5.37;2.80;;;;;;;-145.69;nan;51891.88;5074526;28;20654;-83
2023/06/14 04:58:21;;;;;;;4.73;3.00;;;;;;;-145.69;nan;51889.91;5075244;28;20203;-83
2023/06/14 05:00:48;;;;;;;6.30;2.70;;;;;;;-145.69;nan;51889.91;5075006;28;20199;-83
2023/06/14 05:03:15;;;;;;;5.17;3.33;;;;;;;-145.69;nan;51883.97;5074867;28;20203;-82
2023/06/14 05:05:42;;;;;;;3.70;2.43;;;;;;;-145.69;nan;51878.03;5074751;28;20260;-83
2023/06/14 05:08:09;;;;;;;9.10;3.13;;;;;;;-145.69;nan;51878.03;5074948;28;20205;-83
2023/06/14 05:10:37;;;;;;;5.27;3.10;;;;;;;-145.69;nan;51913.69;5074437;28;20222;-82
2023/06/14 05:13:03;;;;;;;5.60;2.70;;;;;;;-145.69;nan;51878.03;5074915;28;20195;-83
2023/06/14 05:15:30;;;;;;;4.07;2.70;;;;;;;-145.69;nan;51878.03;5074100;28;20244;-83
2023/06/14 05:17:56;;;;;;;5.17;3.00;;;;;;;-145.69;nan;51846.34;5073286;28;20195;-83
2023/06/14 05:20:24;;;;;;;3.13;2.20;;;;;;;-145.69;nan;51848.34;5074734;28;20206;-83
2023/06/14 05:22:52;;;;;;;4.87;3.03;;;;;;;-145.69;nan;51866.16;5073611;28;20657;-83
2023/06/14 05:25:20;;;;;;;4.07;2.70;;;;;;;-145.69;nan;51885.94;5074465;28;20241;-83
2023/06/14 05:27:47;;;;;;;3.90;2.90;;;;;;;-145.69;nan;51858.22;5074409;28;20245;-83
2023/06/14 05:30:15;;;;;;;6.50;2.70;;;;;;;-145.69;nan;51897.84;5074415;28;20237;-83
2023/06/14 05:32:41;;;;;;;3.87;2.30;;;;;;;-145.69;nan;51858.22;5072375;28;20198;-84
2023/06/14 05:35:09;;;;;;;7.57;2.60;;;;;;;-145.69;nan;51842.38;5066513;28;20657;-84
2023/06/14 05:37:35;;;;;;;3.90;2.50;;;;;;;-145.69;nan;51848.34;5074300;28;20659;-84
2023/06/14 05:40:04;;;;;;;4.63;2.70;;;;;;;-145.69;nan;51846.34;5074277;28;20207;-83
2023/06/14 05:42:32;;;;;;;6.60;2.20;;;;;;;-145.69;nan;51781.00;5073773;28;20200;-83
2023/06/14 05:44:58;;;;;;;5.00;2.33;;;;;;;-145.69;nan;51814.66;5073849;28;20252;-83
2023/06/14 05:47:25;;;;;;;3.97;2.65;;;;;;;-145.69;nan;51759.22;5073052;28;20685;-83
2023/06/14 05:49:52;;;;;;;4.82;2.20;;;;;;;-145.69;nan;51719.63;5073942;28;20275;-83
2023/06/14 05:52:18;;;;;;;7.57;2.83;;;;;;;-145.69;nan;51743.38;5073495;28;20210;-84
2023/06/14 05:54:45;;;;;;;4.97;2.17;;;;;;;-145.69;nan;51727.53;5074003;28;20199;-84
2023/06/14 05:57:11;;;;;;;4.28;2.55;;;;;;;-145.69;nan;51739.44;5073535;28;20278;-85
2023/06/14 05:59:40;;;;;;;3.63;2.22;;;;;;;-145.69;nan;51721.59;5072355;28;20206;-84
2023/06/14 06:02:06;;;;;;;7.15;2.35;;;;;;;-145.69;nan;51743.38;5073355;28;20608;-84
2023/06/14 06:04:33;;;;;;;3.78;2.10;;;;;;;-145.69;nan;51749.31;5073503;28;20203;-85
2023/06/14 06:06:59;;;;;;;3.80;2.15;;;;;;;-145.69;nan;51759.22;5073261;28;20301;-84
2023/06/14 06:09:25;;;;;;;3.42;2.30;;;;;;;-145.69;nan;51786.94;5073566;28;20218;-84
2023/06/14 06:11:52;;;;;;;2.50;1.95;;;;;;;-145.69;nan;51751.31;5072339;28;20932;-84
2023/06/14 06:14:18;;;;;;;5.28;2.70;;;;;;;-145.69;nan;51798.81;5073339;28;20224;-84
2023/06/14 06:16:46;;;;;;;5.30;2.30;;;;;;;-145.69;nan;51794.88;5073175;28;20199;-84
2023/06/14 06:19:13;;;;;;;5.03;2.40;;;;;;;-145.69;nan;51783.00;5072793;28;20211;-84
2023/06/14 06:21:40;;;;;;;4.18;2.25;;;;;;;-145.69;nan;51784.97;5072843;28;20857;-84
2023/06/14 06:24:07;;;;;;;3.97;2.40;;;;;;;-145.69;nan;51806.75;5073162;28;20285;-84
2023/06/14 06:26:33;;;;;;;6.85;2.75;;;;;;;-145.69;nan;51794.88;5072861;28;20190;-83
2023/06/14 06:29:00;;;;;;;12.15;3.63;;;;;;;-145.69;nan;51783.00;5072880;28;20613;-83
2023/06/14 06:31:27;;;;;;;4.88;2.78;;;;;;;-145.69;nan;51790.91;5072702;28;20201;-83
2023/06/14 06:33:55;;;;;;;6.40;2.40;;;;;;;-145.69;nan;51773.09;5072924;28;20289;-83
2023/06/14 06:36:22;;;;;;;6.60;2.53;;;;;;;-145.69;nan;51850.31;5072800;28;20287;-84
2023/06/14 06:38:48;;;;;;;6.18;2.53;;;;;;;-145.69;nan;51792.88;5073082;28;20289;-84
2023/06/14 06:41:15;;;;;;;6.50;3.00;;;;;;;-145.69;nan;51794.88;5072760;28;20571;-84
2023/06/14 06:43:41;;;;;;;15.68;3.15;;;;;;;-145.69;nan;51794.88;5073236;28;20400;-84
2023/06/14 06:46:08;;;;;;;7.72;2.70;;;;;;;-145.69;nan;51790.91;5072826;28;20198;-84
2023/06/14 06:48:34;;;;;;;5.60;2.83;;;;;;;-145.69;nan;51783.00;5072875;28;20635;-83
2023/06/14 06:51:02;;;;;;;4.25;2.50;;;;;;;-145.69;nan;51788.94;5073023;28;20329;-84
2023/06/14 06:53:29;;;;;;;9.63;2.75;;;;;;;-145.69;nan;51779.03;5073212;28;20199;-83
2023/06/14 06:55:55;;;;;;;4.97;2.58;;;;;;;-145.69;nan;51779.03;5073055;28;20290;-84
2023/06/14 06:58:22;;;;;;;7.97;2.85;;;;;;;-145.69;nan;51794.88;5072886;28;20237;-84
2023/06/14 07:00:48;;;;;;;5.80;2.67;;;;;;;-145.69;nan;51806.75;5073043;28;20286;-83
2023/06/14 07:03:15;;;;;;;8.18;2.90;;;;;;;-145.69;nan;51794.88;5072890;28;20224;-83
2023/06/14 07:05:42;;;;;;;7.10;2.72;;;;;;;-145.69;nan;51794.88;5073063;28;20211;-83
2023/06/14 07:08:09;;;;;;;4.93;2.70;;;;;;;-145.69;nan;51788.94;5072651;28;20226;-83
2023/06/14 07:10:37;;;;;;;8.77;2.70;;;;;;;-145.69;nan;51781.00;5072880;28;20706;-82
2023/06/14 07:13:04;;;;;;;4.72;2.70;;;;;;;-145.69;nan;51790.91;5072049;28;20657;-83
2023/06/14 07:15:30;;;;;;;6.68;2.97;;;;;;;-145.69;nan;51763.19;5073061;28;20338;-85
2023/06/14 07:17:59;;;;;;;5.30;3.42;;;;;;;-145.69;nan;51777.03;5072930;28;20195;-85
2023/06/14 07:20:26;;;;;;;5.60;2.83;;;;;;;-145.69;nan;51765.16;5073063;28;20623;-83
2023/06/14 07:22:52;;;;;;;6.13;3.20;;;;;;;-145.69;nan;51784.97;5072599;28;20195;-86
2023/06/14 07:25:22;;;;;;;6.35;3.17;;;;;;;-145.69;nan;51763.19;5073164;28;20210;-83
2023/06/14 07:27:48;;;;;;;5.80;3.05;;;;;;;-145.69;nan;51765.16;5071915;28;20203;-85
2023/06/14 07:30:15;;;;;;;5.43;3.10;;;;;;;-145.69;nan;51767.16;5071444;28;20451;-85
2023/06/14 07:32:41;;;;;;;6.28;2.70;;;;;;;-145.69;nan;51779.03;5072691;28;20531;-85
2023/06/14 07:35:08;;;;;;;6.38;2.90;;;;;;;-145.69;nan;51759.22;5075718;28;20202;-85
2023/06/14 07:37:36;;;;;;;7.22;2.88;;;;;;;-145.69;nan;51771.09;5073757;28;20211;-86
2023/06/14 07:40:06;;;;;;;5.50;2.58;;;;;;;-145.69;nan;51786.94;5073528;28;20285;-86
2023/06/14 07:42:34;;;;;;;7.85;3.05;;;;;;;-145.69;nan;51784.97;5075839;28;20597;-86
2023/06/14 07:45:01;;;;;;;5.00;3.20;;;;;;;-145.69;nan;51775.06;5076469;28;20345;-83
2023/06/14 07:47:27;;;;;;;4.50;3.00;;;;;;;-145.69;nan;51719.63;5076702;28;20235;-87
2023/06/14 07:49:56;;;;;;;4.00;2.35;;;;;;;-145.69;nan;51749.31;5076015;28;20273;-83
2023/06/14 07:52:23;;;;;;;5.68;2.67;;;;;;;-145.69;nan;51763.19;5076660;28;20198;-85
2023/06/14 07:54:49;;;;;;;4.68;2.78;;;;;;;-145.69;nan;51751.31;5076894;28;20294;-84
2023/06/14 07:57:16;;;;;;;5.22;2.40;;;;;;;-145.69;nan;51739.44;5076622;28;20222;-86
2023/06/14 07:59:44;;;;;;;4.75;2.65;;;;;;;-145.69;nan;51723.59;5075964;28;20203;-86
2023/06/14 08:02:10;;;;;;;5.53;2.47;;;;;;;-145.69;nan;51743.38;5076954;28;20199;-83
2023/06/14 08:04:37;;;;;;;5.13;2.88;;;;;;;-145.69;nan;51731.50;5076037;28;20241;-81
2023/06/14 08:07:05;;;;;;;11.30;2.95;;;;;;;-145.69;nan;51767.16;5076320;28;20198;-88
2023/06/14 08:09:31;;;;;;;6.20;2.60;;;;;;;-145.69;nan;51717.66;5076695;28;20241;-86
2023/06/14 08:11:58;;;;;;;5.50;2.50;;;;;;;-145.69;nan;51743.38;5076532;28;20483;-89
2023/06/14 08:14:24;;;;;;;5.53;2.88;;;;;;;-145.69;nan;51727.53;5076350;28;20191;-84
2023/06/14 08:16:52;;;;;;;4.80;2.55;;;;;;;-145.69;nan;51751.31;5076463;28;20201;-83
2023/06/14 08:19:19;;;;;;;4.88;2.42;;;;;;;-145.69;nan;51729.53;5076146;28;20557;-83
2023/06/14 08:21:47;;;;;;;10.18;3.15;;;;;;;-145.69;nan;51759.22;5075096;28;20226;-82
2023/06/14 08:24:13;;;;;;;8.15;2.88;;;;;;;-145.69;nan;51784.97;5075362;28;20237;-84
2023/06/14 08:26:40;;;;;;;6.70;3.10;;;;;;;-145.69;nan;51753.28;5075239;28;20609;-83
2023/06/14 08:29:07;;;;;;;7.65;3.10;;;;;;;-145.69;nan;51771.09;5075653;28;20206;-83
2023/06/14 08:31:34;;;;;;;5.03;3.17;;;;;;;-145.69;nan;51771.09;5073588;28;20221;-85
2023/06/14 08:34:02;;;;;;;6.30;3.10;;;;;;;-145.69;nan;51741.41;5073951;28;20209;-80
2023/06/14 08:36:28;;;;;;;5.40;2.85;;;;;;;-145.69;nan;51747.34;5074028;28;20199;-85
2023/06/14 08:38:55;;;;;;;8.32;3.28;;;;;;;-145.69;nan;51745.38;5073456;28;20194;-84
2023/06/14 08:41:24;;;;;;;10.60;3.33;;;;;;;-145.69;nan;51751.31;5073852;28;20213;-82
2023/06/14 08:43:51;;;;;;;8.20;3.05;;;;;;;-145.69;nan;51741.41;5073799;28;20203;-84
2023/06/14 08:46:19;;;;;;;5.13;3.63;;;;;;;-145.69;nan;51731.50;5074637;28;20202;-83
2023/06/14 08:48:48;;;;;;;8.18;3.10;;;;;;;-145.69;nan;51747.34;5074572;28;20284;-81
2023/06/14 08:51:21;;;;;;;7.18;3.67;;;;;;;-145.69;nan;51783.00;5074680;28;20222;-81
2023/06/14 08:53:53;;;;;;;6.07;2.90;;;;;;;-145.69;nan;51759.22;5073704;28;20294;-82
2023/06/14 08:56:20;;;;;;;5.22;3.10;;;;;;;-145.69;nan;51739.44;5074790;28;20199;-83
2023/06/14 08:58:48;;;;;;;6.93;3.40;;;;;;;-145.69;nan;51733.50;5074543;28;20286;-82
2023/06/14 09:01:17;;;;;;;11.43;3.90;;;;;;;-145.69;nan;51753.28;5074668;28;20207;-82
2023/06/14 09:03:44;;;;;;;6.85;3.05;;;;;;;-145.69;nan;51743.38;5074477;28;20198;-83
2023/06/14 09:06:13;;;;;;;9.10;3.15;;;;;;;-145.69;nan;51771.09;5075180;28;20233;-80
2023/06/14 09:08:42;;;;;;;8.88;3.30;;;;;;;-145.69;nan;51767.16;5074681;28;20545;-81
2023/06/14 09:11:09;;;;;;;6.63;2.85;;;;;;;-145.69;nan;51747.34;5069552;28;20234;-82
2023/06/14 09:13:36;;;;;;;6.10;3.00;;;;;;;-145.69;nan;51735.47;5073781;28;20646;-81
2023/06/14 09:16:03;;;;;;;8.45;3.70;;;;;;;-145.69;nan;51759.22;5074375;28;20596;-81
2023/06/14 09:18:36;;;;;;;7.43;3.30;;;;;;;-145.69;nan;51735.47;5074263;28;20259;-84
2023/06/14 09:21:03;;;;;;;10.35;3.33;;;;;;;-145.69;nan;51747.34;5074289;28;20273;-85
2023/06/14 09:23:30;;;;;;;8.32;3.25;;;;;;;-145.69;nan;51769.13;5074799;28;20611;-82
2023/06/14 09:25:58;;;;;;;7.28;3.47;;;;;;;-145.69;nan;51743.38;5074240;28;20249;-83
2023/06/14 09:28:28;;;;;;;5.85;3.00;;;;;;;-145.69;nan;51723.59;5072524;28;20198;-83
2023/06/14 09:30:54;;;;;;;5.18;2.90;;;;;;;-145.69;nan;51737.44;5074157;28;20218;-84
2023/06/14 09:33:21;;;;;;;7.18;3.55;;;;;;;-145.69;nan;51719.63;5074502;28;20198;-85
2023/06/14 09:35:52;;;;;;;6.22;3.10;;;;;;;-145.69;nan;51727.53;5074188;28;20604;-84
2023/06/14 09:38:18;;;;;;;4.60;3.20;;;;;;;-145.69;nan;51733.50;5073759;28;20191;-82
2023/06/14 09:40:45;;;;;;;9.88;3.47;;;;;;;-145.69;nan;51745.38;5073853;28;20252;-84
2023/06/14 09:43:12;;;;;;;7.53;3.70;;;;;;;-145.69;nan;51741.41;5062222;28;20204;-84
2023/06/14 09:45:40;;;;;;;5.10;3.22;;;;;;;-145.69;nan;51747.34;5063029;28;20202;-84
2023/06/14 09:48:08;;;;;;;9.65;3.33;;;;;;;-145.69;nan;51723.59;5073539;28;20311;-84
2023/06/14 09:50:34;;;;;;;8.93;3.15;;;;;;;-145.69;nan;51719.63;5073948;28;20226;-83
2023/06/14 09:53:06;;;;;;;14.05;3.30;;;;;;;-145.69;nan;51727.53;5074451;28;20207;-85
2023/06/14 09:55:36;;;;;;;6.40;3.22;;;;;;;-145.69;nan;51739.44;5073869;28;20195;-81
2023/06/14 09:58:07;;;;;;;6.53;2.90;;;;;;;-145.69;nan;51745.38;5073372;28;20716;-83
2023/06/14 10:00:36;;;;;;;12.55;3.67;;;;;;;-145.69;nan;51717.66;5073683;28;20214;-84
2023/06/14 10:03:07;;;;;;;5.63;3.17;;;;;;;-145.69;nan;51755.25;5073532;28;20278;-82
2023/06/14 10:05:37;;;;;;;9.05;3.60;;;;;;;-145.69;nan;51747.34;5073308;28;20213;-80
2023/06/14 10:08:08;;;;;;;6.13;2.92;;;;;;;-145.69;nan;51733.50;5073491;28;20203;-83
2023/06/14 10:10:35;;;;;;;4.18;2.97;;;;;;;-145.69;nan;51711.72;5073761;28;20252;-80
2023/06/14 10:13:02;;;;;;;6.93;3.20;;;;;;;-145.69;nan;51747.34;5073136;28;20194;-80
2023/06/14 10:15:33;;;;;;;5.80;2.95;;;;;;;-145.69;nan;51739.44;5073471;28;20199;-84
2023/06/14 10:18:10;;;;;;;6.90;3.38;;;;;;;-145.69;nan;51727.53;5071153;28;20224;-83
2023/06/14 10:20:45;;;;;;;6.57;3.13;;;;;;;-145.69;nan;51745.38;5053382;28;20198;-84
2023/06/14 10:23:17;;;;;;;8.82;2.75;;;;;;;-145.69;nan;51725.56;5056851;28;20210;-81
2023/06/14 10:25:44;;;;;;;3.90;3.08;;;;;;;-145.69;nan;51755.25;5073530;28;20209;-85
2023/06/14 10:28:18;;;;;;;6.28;3.30;;;;;;;-145.69;nan;51743.38;5070062;28;20187;-85
2023/06/14 10:31:07;;;;;;;6.85;3.30;;;;;;;-145.69;nan;51711.72;5071210;28;20234;-80
2023/06/14 10:33:37;;;;;;;7.70;3.38;;;;;;;-145.69;nan;51713.69;5072332;28;20665;-78
2023/06/14 10:36:26;;;;;;;9.07;3.20;;;;;;;-145.69;nan;51707.75;5072774;28;20261;-77
2023/06/14 10:38:58;;;;;;;7.93;2.95;;;;;;;-145.69;nan;51719.63;5069728;28;20743;-78
2023/06/14 10:41:27;;;;;;;9.00;3.40;;;;;;;-145.69;nan;51717.66;5072158;28;20551;-79
2023/06/14 10:44:11;;;;;;;7.50;3.22;;;;;;;-145.69;nan;51715.66;5072018;28;20210;-78
2023/06/14 10:46:37;;;;;;;4.78;2.90;;;;;;;-145.69;nan;51707.75;5072346;28;20783;-78
2023/06/14 10:49:06;;;;;;;10.90;3.60;;;;;;;-145.69;nan;51699.81;5071431;28;20253;-78
2023/06/14 10:51:45;;;;;;;5.68;3.45;;;;;;;-145.69;nan;51707.75;5070652;28;20226;-77
2023/06/14 10:54:13;;;;;;;8.05;3.30;;;;;;;-145.69;nan;51719.63;5072279;28;20190;-78
2023/06/14 10:56:47;;;;;;;7.10;3.10;;;;;;;-145.69;nan;51727.53;5072069;28;20293;-78
2023/06/14 10:59:13;;;;;;;7.13;3.20;;;;;;;-145.69;nan;51707.75;5071986;28;20209;-78
2023/06/14 11:01:52;;;;;;;7.80;2.90;;;;;;;-145.69;nan;51695.88;5072160;28;20661;-79
2023/06/14 11:04:21;;;;;;;7.53;3.55;;;;;;;-145.69;nan;51747.34;5072274;28;20198;-78
2023/06/14 11:06:52;;;;;;;5.00;3.15;;;;;;;-145.69;nan;51735.47;5071758;28;20600;-79
2023/06/14 11:09:51;;;;;;;14.60;3.47;;;;;;;-145.69;nan;51719.63;5072780;28;20293;-79
2023/06/14 11:12:18;;;;;;;5.50;2.90;;;;;;;-145.69;nan;51717.66;5072122;28;20237;-79
2023/06/14 11:14:47;;;;;;;5.43;3.50;;;;;;;-145.69;nan;51711.72;5072136;28;20245;-80
2023/06/14 11:17:14;;;;;;;4.78;3.17;;;;;;;-145.69;nan;51733.50;5075270;28;20727;-80
2023/06/14 11:19:42;;;;;;;5.85;3.28;;;;;;;-145.69;nan;51701.81;5076407;28;20606;-80
2023/06/14 11:22:09;;;;;;;7.15;3.33;;;;;;;-145.69;nan;51715.66;5075871;28;20211;-78
2023/06/14 11:24:35;;;;;;;5.82;3.25;;;;;;;-145.69;nan;51717.66;5075964;28;20241;-79
2023/06/14 11:27:02;;;;;;;7.95;3.28;;;;;;;-145.69;nan;51691.91;5075554;28;20201;-79
2023/06/14 11:29:30;;;;;;;8.98;3.55;;;;;;;-145.69;nan;51711.72;5076060;28;20198;-79
2023/06/14 11:31:56;;;;;;;10.07;3.72;;;;;;;-145.69;nan;51711.72;5075815;28;20325;-79
2023/06/14 11:34:23;;;;;;;9.20;3.00;;;;;;;-145.69;nan;51723.59;5071805;28;20238;-79
2023/06/14 11:36:51;;;;;;;6.88;3.20;;;;;;;-145.69;nan;51731.50;5075641;28;20244;-80